sensor_id;sensor_type;location;lat;lon;timestamp;pressure;altitude;pressure_sealevel;temperature;humidity
23574;BME280;11965;53.640;10.050;2023-02-21T00:00:25;101095.66;;;8.62;100.00
23574;BME280;11965;53.640;10.050;2023-02-21T00:03:11;101117.44;;;8.65;100.00
23574;BME280;11965;53.640;10.050;2023-02-21T00:05:55;101106.91;;;8.60;100.00
23574;BME280;11965;53.640;10.050;2023-02-21T00:08:40;101109.84;;;8.51;100.00
23574;BME280;11965;53.640;10.050;2023-02-21T00:11:24;101110.38;;;8.54;100.00
23574;BME280;11965;53.640;10.050;2023-02-21T00:14:08;101109.66;;;8.60;100.00
23574;BME280;11965;53.640;10.050;2023-02-21T00:16:53;101112.25;;;8.62;100.00
23574;BME280;11965;53.640;10.050;2023-02-21T00:19:39;101107.78;;;8.45;100.00
23574;BME280;11965;53.640;10.050;2023-02-21T00:22:23;101111.75;;;8.42;100.00
23574;BME280;11965;53.640;10.050;2023-02-21T00:25:08;101113.66;;;8.42;100.00
23574;BME280;11965;53.640;10.050;2023-02-21T00:27:52;101126.59;;;8.49;100.00
23574;BME280;11965;53.640;10.050;2023-02-21T00:30:37;101119.69;;;8.45;100.00
23574;BME280;11965;53.640;10.050;2023-02-21T00:33:21;101127.13;;;8.45;100.00
23574;BME280;11965;53.640;10.050;2023-02-21T00:36:07;101130.03;;;8.35;100.00
23574;BME280;11965;53.640;10.050;2023-02-21T00:38:52;101135.03;;;8.56;100.00
23574;BME280;11965;53.640;10.050;2023-02-21T00:41:36;101125.06;;;8.47;100.00
23574;BME280;11965;53.640;10.050;2023-02-21T00:44:21;101129.38;;;8.49;100.00
23574;BME280;11965;53.640;10.050;2023-02-21T00:47:05;101125.03;;;8.38;100.00
23574;BME280;11965;53.640;10.050;2023-02-21T00:49:49;101124.53;;;8.43;100.00
23574;BME280;11965;53.640;10.050;2023-02-21T00:52:34;101132.81;;;8.43;100.00
23574;BME280;11965;53.640;10.050;2023-02-21T00:55:19;101139.53;;;8.40;100.00
23574;BME280;11965;53.640;10.050;2023-02-21T00:58:03;101137.63;;;8.33;100.00
23574;BME280;11965;53.640;10.050;2023-02-21T01:00:48;101136.97;;;8.39;100.00
23574;BME280;11965;53.640;10.050;2023-02-21T01:03:32;101131.09;;;8.42;100.00
23574;BME280;11965;53.640;10.050;2023-02-21T01:06:18;101137.97;;;8.46;100.00
23574;BME280;11965;53.640;10.050;2023-02-21T01:09:04;101135.75;;;8.42;100.00
23574;BME280;11965;53.640;10.050;2023-02-21T01:11:48;101131.09;;;8.42;100.00
23574;BME280;11965;53.640;10.050;2023-02-21T01:14:33;101133.00;;;8.42;100.00
23574;BME280;11965;53.640;10.050;2023-02-21T01:17:17;101138.66;;;8.32;100.00
23574;BME280;11965;53.640;10.050;2023-02-21T01:20:04;101143.47;;;8.30;100.00
23574;BME280;11965;53.640;10.050;2023-02-21T01:22:49;101148.38;;;8.44;100.00
23574;BME280;11965;53.640;10.050;2023-02-21T01:25:34;101133.47;;;8.37;100.00
23574;BME280;11965;53.640;10.050;2023-02-21T01:28:19;101136.59;;;8.26;100.00
23574;BME280;11965;53.640;10.050;2023-02-21T01:31:04;101130.72;;;8.29;100.00
23574;BME280;11965;53.640;10.050;2023-02-21T01:33:48;101137.44;;;8.34;100.00
23574;BME280;11965;53.640;10.050;2023-02-21T01:36:33;101137.28;;;8.36;100.00
23574;BME280;11965;53.640;10.050;2023-02-21T01:39:19;101136.09;;;8.30;100.00
23574;BME280;11965;53.640;10.050;2023-02-21T01:42:07;101138.50;;;8.17;100.00
23574;BME280;11965;53.640;10.050;2023-02-21T01:45:39;101139.50;;;8.24;100.00
23574;BME280;11965;53.640;10.050;2023-02-21T01:48:27;101141.94;;;8.27;100.00
23574;BME280;11965;53.640;10.050;2023-02-21T01:51:18;101137.81;;;8.31;100.00
23574;BME280;11965;53.640;10.050;2023-02-21T01:54:05;101141.59;;;8.22;100.00
23574;BME280;11965;53.640;10.050;2023-02-21T01:56:50;101145.03;;;8.24;100.00
23574;BME280;11965;53.640;10.050;2023-02-21T01:59:37;101138.50;;;8.33;100.00
23574;BME280;11965;53.640;10.050;2023-02-21T02:02:28;101138.31;;;8.10;100.00
23574;BME280;11965;53.640;10.050;2023-02-21T02:05:13;101142.78;;;8.03;100.00
23574;BME280;11965;53.640;10.050;2023-02-21T02:07:58;101147.09;;;8.14;100.00
23574;BME280;11965;53.640;10.050;2023-02-21T02:10:45;101145.91;;;8.25;100.00
23574;BME280;11965;53.640;10.050;2023-02-21T02:14:02;101142.28;;;8.16;100.00
23574;BME280;11965;53.640;10.050;2023-02-21T02:16:42;101140.22;;;8.18;100.00
23574;BME280;11965;53.640;10.050;2023-02-21T02:19:38;101136.25;;;8.21;100.00
23574;BME280;11965;53.640;10.050;2023-02-21T02:25:20;101147.78;;;8.16;100.00
23574;BME280;11965;53.640;10.050;2023-02-21T02:28:11;101144.69;;;8.19;100.00
23574;BME280;11965;53.640;10.050;2023-02-21T02:31:06;101144.53;;;8.21;100.00
23574;BME280;11965;53.640;10.050;2023-02-21T02:36:59;101138.66;;;8.15;100.00
23574;BME280;11965;53.640;10.050;2023-02-21T02:39:39;101147.28;;;8.21;100.00
23574;BME280;11965;53.640;10.050;2023-02-21T02:42:18;101144.69;;;8.19;100.00
23574;BME280;11965;53.640;10.050;2023-02-21T02:44:57;101151.97;;;8.28;100.00
23574;BME280;11965;53.640;10.050;2023-02-21T02:47:32;101155.41;;;8.30;100.00
23574;BME280;11965;53.640;10.050;2023-02-21T02:50:04;101156.09;;;8.24;100.00
23574;BME280;11965;53.640;10.050;2023-02-21T02:52:35;101152.47;;;8.24;100.00
23574;BME280;11965;53.640;10.050;2023-02-21T02:55:21;101158.50;;;8.27;100.00
23574;BME280;11965;53.640;10.050;2023-02-21T02:57:51;101146.78;;;8.17;100.00
23574;BME280;11965;53.640;10.050;2023-02-21T03:00:19;101157.63;;;8.18;100.00
23574;BME280;11965;53.640;10.050;2023-02-21T03:02:58;101154.53;;;8.05;100.00
23574;BME280;11965;53.640;10.050;2023-02-21T03:05:42;101159.19;;;8.21;100.00
23574;BME280;11965;53.640;10.050;2023-02-21T03:08:26;101150.41;;;8.17;100.00
23574;BME280;11965;53.640;10.050;2023-02-21T03:11:02;101151.25;;;8.10;100.00
23574;BME280;11965;53.640;10.050;2023-02-21T03:13:39;101150.19;;;8.03;100.00
23574;BME280;11965;53.640;10.050;2023-02-21T03:16:15;101150.72;;;7.90;100.00
23574;BME280;11965;53.640;10.050;2023-02-21T03:18:47;101147.63;;;8.01;100.00
23574;BME280;11965;53.640;10.050;2023-02-21T03:21:20;101156.78;;;8.10;100.00
23574;BME280;11965;53.640;10.050;2023-02-21T03:23:52;101157.97;;;8.07;100.00
23574;BME280;11965;53.640;10.050;2023-02-21T03:26:20;101156.94;;;8.08;100.00
23574;BME280;11965;53.640;10.050;2023-02-21T03:28:54;101164.00;;;7.94;100.00
23574;BME280;11965;53.640;10.050;2023-02-21T03:31:28;101154.53;;;8.13;100.00
23574;BME280;11965;53.640;10.050;2023-02-21T03:33:56;101151.09;;;8.11;100.00
23574;BME280;11965;53.640;10.050;2023-02-21T03:36:23;101152.09;;;8.02;100.00
23574;BME280;11965;53.640;10.050;2023-02-21T03:38:53;101159.53;;;8.02;100.00
23574;BME280;11965;53.640;10.050;2023-02-21T03:41:20;101159.69;;;8.00;100.00
23574;BME280;11965;53.640;10.050;2023-02-21T03:43:47;101160.56;;;8.01;100.00
23574;BME280;11965;53.640;10.050;2023-02-21T03:46:14;101164.19;;;7.93;100.00
23574;BME280;11965;53.640;10.050;2023-02-21T03:48:41;101163.97;;;7.86;100.00
23574;BME280;11965;53.640;10.050;2023-02-21T03:51:15;101177.75;;;7.78;100.00
23574;BME280;11965;53.640;10.050;2023-02-21T03:53:42;101176.75;;;7.79;100.00
23574;BME280;11965;53.640;10.050;2023-02-21T03:56:12;101176.16;;;7.59;100.00
23574;BME280;11965;53.640;10.050;2023-02-21T03:59:00;101171.81;;;7.57;100.00
23574;BME280;11965;53.640;10.050;2023-02-21T04:01:27;101164.28;;;7.67;100.00
23574;BME280;11965;53.640;10.050;2023-02-21T04:03:54;101168.38;;;7.63;100.00
23574;BME280;11965;53.640;10.050;2023-02-21T04:06:22;101174.63;;;7.73;100.00
23574;BME280;11965;53.640;10.050;2023-02-21T04:08:49;101174.28;;;7.76;100.00
23574;BME280;11965;53.640;10.050;2023-02-21T04:11:19;101178.44;;;7.72;100.00
23574;BME280;11965;53.640;10.050;2023-02-21T04:13:46;101184.66;;;7.74;100.00
23574;BME280;11965;53.640;10.050;2023-02-21T04:16:13;101183.94;;;7.64;100.00
23574;BME280;11965;53.640;10.050;2023-02-21T04:18:40;101184.97;;;7.71;100.00
23574;BME280;11965;53.640;10.050;2023-02-21T04:21:09;101183.97;;;7.80;100.00
23574;BME280;11965;53.640;10.050;2023-02-21T04:23:36;101180.84;;;7.67;100.00
23574;BME280;11965;53.640;10.050;2023-02-21T04:26:04;101182.00;;;7.56;100.00
23574;BME280;11965;53.640;10.050;2023-02-21T04:28:39;101180.69;;;7.68;100.00
23574;BME280;11965;53.640;10.050;2023-02-21T04:31:06;101180.78;;;7.50;100.00
23574;BME280;11965;53.640;10.050;2023-02-21T04:33:33;101192.22;;;7.64;100.00
23574;BME280;11965;53.640;10.050;2023-02-21T04:36:00;101186.34;;;7.67;100.00
23574;BME280;11965;53.640;10.050;2023-02-21T04:38:34;101180.63;;;7.60;100.00
23574;BME280;11965;53.640;10.050;2023-02-21T04:41:02;101176.47;;;7.48;100.00
23574;BME280;11965;53.640;10.050;2023-02-21T04:43:29;101182.88;;;7.57;100.00
23574;BME280;11965;53.640;10.050;2023-02-21T04:45:58;101177.16;;;7.50;100.00
23574;BME280;11965;53.640;10.050;2023-02-21T04:48:25;101180.78;;;7.50;100.00
23574;BME280;11965;53.640;10.050;2023-02-21T04:50:52;101165.31;;;7.58;100.00
23574;BME280;11965;53.640;10.050;2023-02-21T04:53:19;101162.97;;;7.37;100.00
23574;BME280;11965;53.640;10.050;2023-02-21T04:55:46;101168.66;;;7.35;100.00
23574;BME280;11965;53.640;10.050;2023-02-21T04:58:13;101161.78;;;7.39;100.00
23574;BME280;11965;53.640;10.050;2023-02-21T05:00:39;101162.56;;;7.23;100.00
23574;BME280;11965;53.640;10.050;2023-02-21T05:03:08;101153.78;;;7.28;100.00
23574;BME280;11965;53.640;10.050;2023-02-21T05:05:34;101152.19;;;7.17;100.00
23574;BME280;11965;53.640;10.050;2023-02-21T05:08:01;101149.59;;;7.16;100.00
23574;BME280;11965;53.640;10.050;2023-02-21T05:10:28;101155.16;;;7.24;100.00
23574;BME280;11965;53.640;10.050;2023-02-21T05:12:55;101158.59;;;7.18;100.00
23574;BME280;11965;53.640;10.050;2023-02-21T05:15:22;101142.50;;;7.05;100.00
23574;BME280;11965;53.640;10.050;2023-02-21T05:17:49;101172.16;;;7.11;100.00
23574;BME280;11965;53.640;10.050;2023-02-21T05:20:17;101166.84;;;7.18;100.00
23574;BME280;11965;53.640;10.050;2023-02-21T05:22:47;101179.72;;;7.09;100.00
23574;BME280;11965;53.640;10.050;2023-02-21T05:25:16;101176.38;;;6.97;100.00
23574;BME280;11965;53.640;10.050;2023-02-21T05:27:43;101177.81;;;7.01;100.00
23574;BME280;11965;53.640;10.050;2023-02-21T05:30:13;101184.31;;;7.00;100.00
23574;BME280;11965;53.640;10.050;2023-02-21T05:32:40;101184.69;;;7.05;100.00
23574;BME280;11965;53.640;10.050;2023-02-21T05:35:08;101179.66;;;7.01;100.00
23574;BME280;11965;53.640;10.050;2023-02-21T05:37:36;101184.31;;;7.00;100.00
23574;BME280;11965;53.640;10.050;2023-02-21T05:40:04;101177.03;;;6.91;100.00
23574;BME280;11965;53.640;10.050;2023-02-21T05:42:31;101188.44;;;6.96;100.00
23574;BME280;11965;53.640;10.050;2023-02-21T05:44:58;101188.63;;;7.03;100.00
23574;BME280;11965;53.640;10.050;2023-02-21T05:47:25;101197.53;;;6.89;100.00
23574;BME280;11965;53.640;10.050;2023-02-21T05:49:52;101194.59;;;6.90;100.00
23574;BME280;11965;53.640;10.050;2023-02-21T05:52:19;101196.38;;;6.99;100.00
23574;BME280;11965;53.640;10.050;2023-02-21T05:54:47;101209.72;;;6.86;100.00
23574;BME280;11965;53.640;10.050;2023-02-21T05:57:14;101216.00;;;6.96;100.00
23574;BME280;11965;53.640;10.050;2023-02-21T05:59:41;101209.06;;;6.92;100.00
23574;BME280;11965;53.640;10.050;2023-02-21T06:02:08;101215.66;;;6.99;100.00
23574;BME280;11965;53.640;10.050;2023-02-21T06:04:34;101211.88;;;7.00;100.00
23574;BME280;11965;53.640;10.050;2023-02-21T06:07:01;101220.09;;;6.92;100.00
23574;BME280;11965;53.640;10.050;2023-02-21T06:09:29;101231.44;;;6.89;100.00
23574;BME280;11965;53.640;10.050;2023-02-21T06:11:57;101229.13;;;7.02;100.00
23574;BME280;11965;53.640;10.050;2023-02-21T06:14:24;101223.72;;;6.93;100.00
23574;BME280;11965;53.640;10.050;2023-02-21T06:16:51;101233.16;;;6.90;100.00
23574;BME280;11965;53.640;10.050;2023-02-21T06:19:19;101230.63;;;6.97;100.00
23574;BME280;11965;53.640;10.050;2023-02-21T06:21:46;101242.47;;;6.89;100.00
23574;BME280;11965;53.640;10.050;2023-02-21T06:24:12;101240.41;;;6.91;100.00
23574;BME280;11965;53.640;10.050;2023-02-21T06:26:39;101237.91;;;7.06;100.00
23574;BME280;11965;53.640;10.050;2023-02-21T06:29:09;101234.25;;;6.97;100.00
23574;BME280;11965;53.640;10.050;2023-02-21T06:31:36;101244.81;;;7.02;100.00
23574;BME280;11965;53.640;10.050;2023-02-21T06:34:04;101241.47;;;6.72;100.00
23574;BME280;11965;53.640;10.050;2023-02-21T06:36:31;101244.38;;;6.71;100.00
23574;BME280;11965;53.640;10.050;2023-02-21T06:38:57;101245.34;;;6.61;100.00
23574;BME280;11965;53.640;10.050;2023-02-21T06:41:26;101256.91;;;6.65;100.00
23574;BME280;11965;53.640;10.050;2023-02-21T06:43:55;101253.28;;;6.64;100.00
23574;BME280;11965;53.640;10.050;2023-02-21T06:46:25;101262.09;;;6.68;100.00
23574;BME280;11965;53.640;10.050;2023-02-21T06:48:53;101259.44;;;6.58;100.00
23574;BME280;11965;53.640;10.050;2023-02-21T06:51:20;101261.31;;;6.58;100.00
23574;BME280;11965;53.640;10.050;2023-02-21T06:53:54;101267.25;;;6.45;100.00
23574;BME280;11965;53.640;10.050;2023-02-21T06:56:21;101256.38;;;6.61;100.00
23574;BME280;11965;53.640;10.050;2023-02-21T06:58:48;101259.13;;;6.61;100.00
23574;BME280;11965;53.640;10.050;2023-02-21T07:01:15;101259.81;;;6.63;100.00
23574;BME280;11965;53.640;10.050;2023-02-21T07:03:44;101260.91;;;6.53;100.00
23574;BME280;11965;53.640;10.050;2023-02-21T07:06:11;101269.66;;;6.66;100.00
23574;BME280;11965;53.640;10.050;2023-02-21T07:08:39;101273.81;;;6.70;100.00
23574;BME280;11965;53.640;10.050;2023-02-21T07:11:06;101271.94;;;6.71;100.00
23574;BME280;11965;53.640;10.050;2023-02-21T07:13:34;101275.25;;;6.56;100.00
23574;BME280;11965;53.640;10.050;2023-02-21T07:16:02;101283.91;;;6.61;100.00
23574;BME280;11965;53.640;10.050;2023-02-21T07:18:29;101281.69;;;6.65;100.00
23574;BME280;11965;53.640;10.050;2023-02-21T07:20:57;101289.09;;;6.64;100.00
23574;BME280;11965;53.640;10.050;2023-02-21T07:23:24;101292.16;;;6.79;100.00
23574;BME280;11965;53.640;10.050;2023-02-21T07:25:51;101289.97;;;6.83;100.00
23574;BME280;11965;53.640;10.050;2023-02-21T07:28:18;101284.00;;;6.96;100.00
23574;BME280;11965;53.640;10.050;2023-02-21T07:30:46;101288.34;;;6.98;100.00
23574;BME280;11965;53.640;10.050;2023-02-21T07:33:15;101284.78;;;7.06;100.00
23574;BME280;11965;53.640;10.050;2023-02-21T07:35:42;101287.91;;;7.11;100.00
23574;BME280;11965;53.640;10.050;2023-02-21T07:38:20;101290.47;;;7.04;100.00
23574;BME280;11965;53.640;10.050;2023-02-21T07:40:47;101282.63;;;7.18;100.00
23574;BME280;11965;53.640;10.050;2023-02-21T07:43:14;101284.16;;;7.12;100.00
23574;BME280;11965;53.640;10.050;2023-02-21T07:45:42;101286.63;;;6.97;100.00
23574;BME280;11965;53.640;10.050;2023-02-21T07:48:09;101297.56;;;6.89;100.00
23574;BME280;11965;53.640;10.050;2023-02-21T07:50:39;101301.25;;;6.98;100.00
23574;BME280;11965;53.640;10.050;2023-02-21T07:53:06;101312.00;;;6.83;100.00
23574;BME280;11965;53.640;10.050;2023-02-21T07:55:34;101314.34;;;6.78;100.00
23574;BME280;11965;53.640;10.050;2023-02-21T07:58:01;101314.81;;;6.91;100.00
23574;BME280;11965;53.640;10.050;2023-02-21T08:00:28;101312.84;;;6.83;100.00
23574;BME280;11965;53.640;10.050;2023-02-21T08:02:56;101324.75;;;6.84;100.00
23574;BME280;11965;53.640;10.050;2023-02-21T08:05:23;101321.19;;;6.92;100.00
23574;BME280;11965;53.640;10.050;2023-02-21T08:07:50;101325.66;;;6.93;100.00
23574;BME280;11965;53.640;10.050;2023-02-21T08:10:21;101327.56;;;6.92;100.00
23574;BME280;11965;53.640;10.050;2023-02-21T08:12:49;101324.91;;;6.82;100.00
23574;BME280;11965;53.640;10.050;2023-02-21T08:15:17;101335.50;;;6.95;100.00
23574;BME280;11965;53.640;10.050;2023-02-21T08:17:46;101338.66;;;7.00;100.00
23574;BME280;11965;53.640;10.050;2023-02-21T08:20:13;101340.34;;;6.93;100.00
23574;BME280;11965;53.640;10.050;2023-02-21T08:22:40;101333.94;;;6.93;100.00
23574;BME280;11965;53.640;10.050;2023-02-21T08:25:09;101335.25;;;7.06;100.00
23574;BME280;11965;53.640;10.050;2023-02-21T08:27:37;101342.50;;;7.07;100.00
23574;BME280;11965;53.640;10.050;2023-02-21T08:30:07;101342.41;;;7.17;100.00
23574;BME280;11965;53.640;10.050;2023-02-21T08:32:34;101350.25;;;7.04;100.00
23574;BME280;11965;53.640;10.050;2023-02-21T08:35:01;101339.63;;;7.17;100.00
23574;BME280;11965;53.640;10.050;2023-02-21T08:37:30;101338.75;;;7.35;100.00
23574;BME280;11965;53.640;10.050;2023-02-21T08:40:02;101346.97;;;7.26;100.00
23574;BME280;11965;53.640;10.050;2023-02-21T08:42:29;101344.41;;;7.33;100.00
23574;BME280;11965;53.640;10.050;2023-02-21T08:44:56;101344.91;;;7.28;100.00
23574;BME280;11965;53.640;10.050;2023-02-21T08:47:24;101342.84;;;7.30;100.00
23574;BME280;11965;53.640;10.050;2023-02-21T08:49:51;101358.59;;;7.38;100.00
23574;BME280;11965;53.640;10.050;2023-02-21T08:52:18;101356.31;;;7.60;100.00
23574;BME280;11965;53.640;10.050;2023-02-21T08:54:46;101365.94;;;7.82;100.00
23574;BME280;11965;53.640;10.050;2023-02-21T08:57:13;101360.41;;;7.82;100.00
23574;BME280;11965;53.640;10.050;2023-02-21T08:59:40;101368.13;;;7.70;100.00
23574;BME280;11965;53.640;10.050;2023-02-21T09:02:14;101368.00;;;7.80;100.00
23574;BME280;11965;53.640;10.050;2023-02-21T09:04:43;101374.47;;;7.96;100.00
23574;BME280;11965;53.640;10.050;2023-02-21T09:07:11;101383.13;;;8.02;100.00
23574;BME280;11965;53.640;10.050;2023-02-21T09:09:39;101359.84;;;8.04;100.00
23574;BME280;11965;53.640;10.050;2023-02-21T09:12:06;101377.28;;;8.05;100.00
23574;BME280;11965;53.640;10.050;2023-02-21T09:14:34;101387.50;;;8.12;100.00
23574;BME280;11965;53.640;10.050;2023-02-21T09:17:01;101381.47;;;8.17;100.00
23574;BME280;11965;53.640;10.050;2023-02-21T09:19:28;101380.28;;;8.19;100.00
23574;BME280;11965;53.640;10.050;2023-02-21T09:21:56;101388.41;;;8.29;100.00
23574;BME280;11965;53.640;10.050;2023-02-21T09:24:26;101381.16;;;8.20;100.00
23574;BME280;11965;53.640;10.050;2023-02-21T09:26:55;101390.19;;;7.96;100.00
23574;BME280;11965;53.640;10.050;2023-02-21T09:29:24;101396.75;;;8.03;100.00
23574;BME280;11965;53.640;10.050;2023-02-21T09:31:52;101398.91;;;8.17;100.00
23574;BME280;11965;53.640;10.050;2023-02-21T09:34:19;101397.56;;;8.30;100.00
23574;BME280;11965;53.640;10.050;2023-02-21T09:36:47;101403.69;;;8.42;100.00
23574;BME280;11965;53.640;10.050;2023-02-21T09:39:17;101401.31;;;8.47;100.00
23574;BME280;11965;53.640;10.050;2023-02-21T09:41:44;101408.25;;;8.67;100.00
23574;BME280;11965;53.640;10.050;2023-02-21T09:44:16;101404.88;;;8.90;100.00
23574;BME280;11965;53.640;10.050;2023-02-21T09:46:46;101404.91;;;9.14;100.00
23574;BME280;11965;53.640;10.050;2023-02-21T09:49:20;101410.78;;;9.11;100.00
23574;BME280;11965;53.640;10.050;2023-02-21T09:51:50;101410.06;;;9.01;100.00
23574;BME280;11965;53.640;10.050;2023-02-21T09:54:24;101385.47;;;8.65;100.00
23574;BME280;11965;53.640;10.050;2023-02-21T09:56:53;101414.38;;;8.95;100.00
23574;BME280;11965;53.640;10.050;2023-02-21T09:59:20;101420.28;;;9.17;100.00
23574;BME280;11965;53.640;10.050;2023-02-21T10:01:59;101413.34;;;9.29;99.11
23574;BME280;11965;53.640;10.050;2023-02-21T10:04:40;101411.28;;;9.23;98.49
23574;BME280;11965;53.640;10.050;2023-02-21T10:07:17;101419.09;;;9.36;96.74
23574;BME280;11965;53.640;10.050;2023-02-21T10:09:54;101414.56;;;9.43;96.81
23574;BME280;11965;53.640;10.050;2023-02-21T10:12:28;101419.41;;;9.57;96.97
23574;BME280;11965;53.640;10.050;2023-02-21T10:15:17;101421.13;;;9.74;96.37
23574;BME280;11965;53.640;10.050;2023-02-21T10:17:54;101422.69;;;9.61;96.52
23574;BME280;11965;53.640;10.050;2023-02-21T10:20:31;101424.25;;;9.63;96.29
23574;BME280;11965;53.640;10.050;2023-02-21T10:23:02;101425.97;;;9.72;95.38
23574;BME280;11965;53.640;10.050;2023-02-21T10:25:43;101422.19;;;9.49;95.59
23574;BME280;11965;53.640;10.050;2023-02-21T10:28:17;101432.22;;;9.58;95.26
23574;BME280;11965;53.640;10.050;2023-02-21T10:30:46;101422.19;;;9.49;92.20
23574;BME280;11965;53.640;10.050;2023-02-21T10:33:15;101425.31;;;9.46;95.63
23574;BME280;11965;53.640;10.050;2023-02-21T10:35:42;101427.53;;;9.34;94.10
23574;BME280;11965;53.640;10.050;2023-02-21T10:38:12;101426.69;;;9.42;94.96
23574;BME280;11965;53.640;10.050;2023-02-21T10:40:44;101428.09;;;9.38;95.32
23574;BME280;11965;53.640;10.050;2023-02-21T10:43:16;101429.09;;;9.53;91.96
23574;BME280;11965;53.640;10.050;2023-02-21T10:45:52;101435.16;;;9.73;92.25
23574;BME280;11965;53.640;10.050;2023-02-21T10:48:24;101438.59;;;9.91;92.18
23574;BME280;11965;53.640;10.050;2023-02-21T10:51:05;101429.03;;;10.10;88.27
23574;BME280;11965;53.640;10.050;2023-02-21T10:53:34;101435.75;;;10.16;89.21
23574;BME280;11965;53.640;10.050;2023-02-21T10:56:27;101436.41;;;10.26;90.29
23574;BME280;11965;53.640;10.050;2023-02-21T10:59:00;101426.34;;;10.25;85.86
23574;BME280;11965;53.640;10.050;2023-02-21T11:01:34;101435.03;;;10.30;84.69
23574;BME280;11965;53.640;10.050;2023-02-21T11:04:05;101433.75;;;10.49;82.66
23574;BME280;11965;53.640;10.050;2023-02-21T11:06:35;101430.13;;;10.49;82.12
23574;BME280;11965;53.640;10.050;2023-02-21T11:09:29;101432.75;;;10.73;84.20
23574;BME280;11965;53.640;10.050;2023-02-21T11:12:03;101435.75;;;10.95;82.93
23574;BME280;11965;53.640;10.050;2023-02-21T11:14:32;101437.84;;;10.93;78.65
23574;BME280;11965;53.640;10.050;2023-02-21T11:17:20;101429.78;;;10.83;75.80
23574;BME280;11965;53.640;10.050;2023-02-21T11:19:50;101424.78;;;10.78;81.30
23574;BME280;11965;53.640;10.050;2023-02-21T11:22:21;101424.19;;;11.14;80.35
23574;BME280;11965;53.640;10.050;2023-02-21T11:24:56;101420.63;;;11.28;80.49
23574;BME280;11965;53.640;10.050;2023-02-21T11:27:29;101406.78;;;11.43;78.83
23574;BME280;11965;53.640;10.050;2023-02-21T11:29:58;101418.34;;;11.32;78.21
23574;BME280;11965;53.640;10.050;2023-02-21T11:32:34;101417.41;;;11.17;78.05
23574;BME280;11965;53.640;10.050;2023-02-21T11:35:21;101418.31;;;11.09;79.15
23574;BME280;11965;53.640;10.050;2023-02-21T11:37:52;101417.09;;;10.89;76.53
23574;BME280;11965;53.640;10.050;2023-02-21T11:40:26;101411.97;;;11.00;81.48
23574;BME280;11965;53.640;10.050;2023-02-21T11:43:18;101420.38;;;11.15;79.62
23574;BME280;11965;53.640;10.050;2023-02-21T11:46:00;101410.81;;;11.18;82.58
23574;BME280;11965;53.640;10.050;2023-02-21T11:48:37;101416.38;;;11.18;81.43
23574;BME280;11965;53.640;10.050;2023-02-21T11:51:15;101408.09;;;11.10;78.81
23574;BME280;11965;53.640;10.050;2023-02-21T11:53:43;101415.41;;;11.25;79.84
23574;BME280;11965;53.640;10.050;2023-02-21T11:56:23;101421.22;;;11.39;79.12
23574;BME280;11965;53.640;10.050;2023-02-21T11:59:05;101413.41;;;11.19;80.30
23574;BME280;11965;53.640;10.050;2023-02-21T12:01:45;101411.97;;;11.00;79.92
23574;BME280;11965;53.640;10.050;2023-02-21T12:04:35;101413.09;;;10.91;80.91
23574;BME280;11965;53.640;10.050;2023-02-21T12:07:13;101411.72;;;10.87;82.90
23574;BME280;11965;53.640;10.050;2023-02-21T12:09:50;101416.22;;;10.88;82.03
23574;BME280;11965;53.640;10.050;2023-02-21T12:12:31;101417.94;;;10.89;82.15
23574;BME280;11965;53.640;10.050;2023-02-21T12:15:11;101417.09;;;10.89;80.10
23574;BME280;11965;53.640;10.050;2023-02-21T12:18:11;101426.44;;;10.88;81.89
23574;BME280;11965;53.640;10.050;2023-02-21T12:21:00;101419.72;;;10.82;79.57
23574;BME280;11965;53.640;10.050;2023-02-21T12:23:39;101419.81;;;10.97;80.33
23574;BME280;11965;53.640;10.050;2023-02-21T12:26:26;101426.84;;;11.08;80.15
23574;BME280;11965;53.640;10.050;2023-02-21T12:29:09;101419.34;;;10.85;81.45
23574;BME280;11965;53.640;10.050;2023-02-21T12:31:55;101420.28;;;11.00;81.98
23574;BME280;11965;53.640;10.050;2023-02-21T12:34:37;101433.47;;;10.75;82.65
23574;BME280;11965;53.640;10.050;2023-02-21T12:37:20;101430.69;;;10.98;84.30
23574;BME280;11965;53.640;10.050;2023-02-21T12:40:08;101430.31;;;11.01;82.95
23574;BME280;11965;53.640;10.050;2023-02-21T12:43:04;101428.34;;;10.87;81.59
23574;BME280;11965;53.640;10.050;2023-02-21T12:45:48;101425.91;;;10.92;81.37
23574;BME280;11965;53.640;10.050;2023-02-21T12:48:35;101434.53;;;10.97;78.55
23574;BME280;11965;53.640;10.050;2023-02-21T12:51:07;101428.50;;;10.94;78.54
23574;BME280;11965;53.640;10.050;2023-02-21T12:53:42;101429.47;;;11.01;78.27
23574;BME280;11965;53.640;10.050;2023-02-21T12:56:16;101435.28;;;10.91;76.95
23574;BME280;11965;53.640;10.050;2023-02-21T12:58:51;101432.66;;;10.90;81.54
23574;BME280;11965;53.640;10.050;2023-02-21T13:01:25;101429.91;;;10.90;80.78
23574;BME280;11965;53.640;10.050;2023-02-21T13:04:05;101426.81;;;10.84;80.84
23574;BME280;11965;53.640;10.050;2023-02-21T13:06:41;101428.66;;;10.92;81.06
23574;BME280;11965;53.640;10.050;2023-02-21T13:09:19;101424.94;;;10.77;79.97
23574;BME280;11965;53.640;10.050;2023-02-21T13:11:56;101429.78;;;10.83;81.79
23574;BME280;11965;53.640;10.050;2023-02-21T13:14:31;101442.25;;;10.79;81.01
23574;BME280;11965;53.640;10.050;2023-02-21T13:16:59;101427.75;;;10.69;80.71
23574;BME280;11965;53.640;10.050;2023-02-21T13:19:41;101429.19;;;10.65;81.85
23574;BME280;11965;53.640;10.050;2023-02-21T13:26:04;101432.56;;;10.83;82.44